This is the latest recevied weather packets stored in our database for station/object KK6LZB. If no packets are shown the sender has not sent any weather packets the latest 10 day(s).
| Time | Temp. | Humidity | Pressure | Rain* | Wind** | Luminosity | Snow |
|---|---|---|---|---|---|---|---|
| 1777497800 | 20.56° C | 60% | 1017.6 hPa | 0 mm | - | 406 W/m² | - |
| 1777497496 | 21.11° C | 59% | 1017.5 hPa | 0 mm | - | 700 W/m² | - |
| 1777497193 | 21.11° C | 57% | 1017.6 hPa | 0 mm | - | 602 W/m² | - |
| 1777496889 | 21.11° C | 58% | 1017.6 hPa | 0 mm | - | 826 W/m² | - |
| 1777496586 | 22.78° C | 55% | 1017.5 hPa | 0 mm | - | 478 W/m² | - |
| 1777496282 | 22.22° C | 55% | 1017.3 hPa | 0 mm | - | 518 W/m² | - |
| 1777495978 | 21.11° C | 58% | 1017.5 hPa | 0 mm | - | 803 W/m² | - |
| 1777495675 | 21.11° C | 60% | 1017.5 hPa | 0 mm | - | 747 W/m² | - |
| 1777495370 | 21.67° C | 59% | 1017.5 hPa | 0 mm | - | 440 W/m² | - |
| 1777495068 | 21.67° C | 64% | 1017.6 hPa | 0 mm | - | 742 W/m² | - |
| 1777494765 | 21.11° C | 65% | 1017.7 hPa | 0 mm | - | 851 W/m² | - |
| 1777494462 | 20.56° C | 65% | 1017.7 hPa | 0 mm | - | 785 W/m² | - |
| 1777494158 | 20.56° C | 67% | 1018 hPa | 0 mm | - | 451 W/m² | - |
| 1777493856 | 20.56° C | 70% | 1018.1 hPa | 0 mm | - | 707 W/m² | - |
| 1777493554 | 20.56° C | 69% | 1018.2 hPa | 0 mm | - | 516 W/m² | - |
| 1777493251 | 20° C | 70% | 1018 hPa | 0 mm | - | 521 W/m² | - |
| 1777492947 | 19.44° C | 70% | 1017.9 hPa | 0 mm | - | 472 W/m² | - |
| 1777492645 | 20° C | 70% | 1018.1 hPa | 0 mm | - | 521 W/m² | - |
| 1777492345 | 20° C | 72% | 1017.8 hPa | 0 mm | - | 708 W/m² | - |
| 1777492042 | 20° C | 73% | 1018 hPa | 0 mm | - | 781 W/m² | - |
| 1777491739 | 20° C | 70% | 1018 hPa | 0 mm | - | 515 W/m² | - |
| 1777491436 | 19.44° C | 70% | 1017.9 hPa | 0 mm | - | 580 W/m² | - |
| 1777491133 | 20° C | 71% | 1018 hPa | 0 mm | - | 814 W/m² | - |
| 1777490828 | 20° C | 68% | 1018 hPa | 0 mm | - | 669 W/m² | - |
| 1777490525 | 19.44° C | 69% | 1018.2 hPa | 0 mm | - | 722 W/m² | - |
* Rain latest hour (hover to see other rain measurements)
** Current wind speed in m/s (hover to see current wind gust speed)